Hlavní strana
METAR-TAF:

METAR-TAF

Letiště :

Aden, Jemen

zeměpisná šířka: 12-40N, zeměpisná délka: 045-02E, výška: 3 m

Aktuální stav počasí

Zpráva byla vytvořena před 3 hodinami a 14 minutami, v 05:00 UTC
Východoseverovýchodní vítr 5 kt
Teplota 34°C
Vlhkost vzduchu 67%
Tlak 1006 hPa
Viditelnost 10 km a více
Skoro jasno ve výšce 2000 ft

METAR: OYAA 190500Z 07005KT 9999 FEW020 34/27 Q1006 NOSIG

Čas: 11:14 (08:14 UTC)


TAF: chybějící

Stav a předpovědi počasí z více než 4 000 letišť (zprávy METAR a TAF).

Červené a žluté tečky na mapě představují dostupné meteorologické stanice.

Když kurzor umístíte na tečku, zobrazí se název stanice.

Pak kliknutím zobrazíte stav a předpověď počasí.

Chcete-li změnit mapu, kliknutím na zelené tlačítko se znaménkem +mapu přiblížíte, kliknutím na zelené tlačítko se znaménkem – mapu oddálíte a kliknutím na zelené šipky přejdete na sousední mapy.


METAR-TAF: